sensor_id;sensor_type;location;lat;lon;timestamp;temperature;humidity
16635;DHT22;8431;52.458;9.998;2023-03-13T00:00:53;7.00;99.90
16635;DHT22;8431;52.458;9.998;2023-03-13T00:03:21;7.00;99.90
16635;DHT22;8431;52.458;9.998;2023-03-13T00:05:49;7.00;99.90
16635;DHT22;8431;52.458;9.998;2023-03-13T00:08:20;7.00;99.90
16635;DHT22;8431;52.458;9.998;2023-03-13T00:10:47;6.90;99.90
16635;DHT22;8431;52.458;9.998;2023-03-13T00:13:17;6.90;99.90
16635;DHT22;8431;52.458;9.998;2023-03-13T00:15:44;6.90;99.90
16635;DHT22;8431;52.458;9.998;2023-03-13T00:18:13;7.00;99.90
16635;DHT22;8431;52.458;9.998;2023-03-13T00:20:40;6.90;99.90
16635;DHT22;8431;52.458;9.998;2023-03-13T00:23:07;6.90;99.90
16635;DHT22;8431;52.458;9.998;2023-03-13T00:25:34;7.00;99.90
16635;DHT22;8431;52.458;9.998;2023-03-13T00:28:01;7.20;99.90
16635;DHT22;8431;52.458;9.998;2023-03-13T00:30:27;7.40;99.90
16635;DHT22;8431;52.458;9.998;2023-03-13T00:32:54;7.30;99.90
16635;DHT22;8431;52.458;9.998;2023-03-13T00:35:23;7.30;99.90
16635;DHT22;8431;52.458;9.998;2023-03-13T00:37:50;7.20;99.90
16635;DHT22;8431;52.458;9.998;2023-03-13T00:40:17;7.20;99.90
16635;DHT22;8431;52.458;9.998;2023-03-13T00:42:44;7.10;99.90
16635;DHT22;8431;52.458;9.998;2023-03-13T00:45:11;7.10;99.90
16635;DHT22;8431;52.458;9.998;2023-03-13T00:47:38;7.00;99.90
16635;DHT22;8431;52.458;9.998;2023-03-13T00:50:06;6.90;99.90
16635;DHT22;8431;52.458;9.998;2023-03-13T00:52:35;6.90;99.90
16635;DHT22;8431;52.458;9.998;2023-03-13T00:55:02;6.90;99.90
16635;DHT22;8431;52.458;9.998;2023-03-13T00:57:29;6.80;99.90
16635;DHT22;8431;52.458;9.998;2023-03-13T00:59:56;6.80;99.90
16635;DHT22;8431;52.458;9.998;2023-03-13T01:02:23;6.80;99.90
16635;DHT22;8431;52.458;9.998;2023-03-13T01:04:51;6.80;99.90
16635;DHT22;8431;52.458;9.998;2023-03-13T01:07:19;6.80;99.90
16635;DHT22;8431;52.458;9.998;2023-03-13T01:09:48;6.90;99.90
16635;DHT22;8431;52.458;9.998;2023-03-13T01:12:15;6.80;99.90
16635;DHT22;8431;52.458;9.998;2023-03-13T01:14:42;6.90;99.90
16635;DHT22;8431;52.458;9.998;2023-03-13T01:17:09;6.90;99.90
16635;DHT22;8431;52.458;9.998;2023-03-13T01:19:35;6.80;99.90
16635;DHT22;8431;52.458;9.998;2023-03-13T01:22:03;6.90;99.90
16635;DHT22;8431;52.458;9.998;2023-03-13T01:24:30;6.90;99.90
16635;DHT22;8431;52.458;9.998;2023-03-13T01:26:58;6.90;99.90
16635;DHT22;8431;52.458;9.998;2023-03-13T01:29:29;6.90;99.90
16635;DHT22;8431;52.458;9.998;2023-03-13T01:31:56;6.80;99.90
16635;DHT22;8431;52.458;9.998;2023-03-13T01:34:22;6.90;99.90
16635;DHT22;8431;52.458;9.998;2023-03-13T01:36:49;6.90;99.90
16635;DHT22;8431;52.458;9.998;2023-03-13T01:39:17;6.80;99.90
16635;DHT22;8431;52.458;9.998;2023-03-13T01:41:43;6.80;99.90
16635;DHT22;8431;52.458;9.998;2023-03-13T01:44:20;6.80;99.90
16635;DHT22;8431;52.458;9.998;2023-03-13T01:46:47;6.80;99.90
16635;DHT22;8431;52.458;9.998;2023-03-13T01:49:17;6.80;99.90
16635;DHT22;8431;52.458;9.998;2023-03-13T01:51:47;6.80;99.90
16635;DHT22;8431;52.458;9.998;2023-03-13T01:54:18;6.90;99.90
16635;DHT22;8431;52.458;9.998;2023-03-13T01:56:50;6.90;99.90
16635;DHT22;8431;52.458;9.998;2023-03-13T01:59:23;7.00;99.90
16635;DHT22;8431;52.458;9.998;2023-03-13T02:01:52;6.90;99.90
16635;DHT22;8431;52.458;9.998;2023-03-13T02:04:22;6.90;99.90
16635;DHT22;8431;52.458;9.998;2023-03-13T02:06:52;7.00;99.90
16635;DHT22;8431;52.458;9.998;2023-03-13T02:09:24;7.10;99.90
16635;DHT22;8431;52.458;9.998;2023-03-13T02:11:54;7.10;99.90
16635;DHT22;8431;52.458;9.998;2023-03-13T02:14:27;7.10;99.90
16635;DHT22;8431;52.458;9.998;2023-03-13T02:16:54;7.00;99.90
16635;DHT22;8431;52.458;9.998;2023-03-13T02:19:28;7.00;99.90
16635;DHT22;8431;52.458;9.998;2023-03-13T02:22:04;7.00;99.90
16635;DHT22;8431;52.458;9.998;2023-03-13T02:24:38;7.00;99.90
16635;DHT22;8431;52.458;9.998;2023-03-13T02:27:10;7.10;99.90
16635;DHT22;8431;52.458;9.998;2023-03-13T02:29:38;7.10;99.90
16635;DHT22;8431;52.458;9.998;2023-03-13T02:32:06;7.10;99.90
16635;DHT22;8431;52.458;9.998;2023-03-13T02:34:35;7.00;99.90
16635;DHT22;8431;52.458;9.998;2023-03-13T02:37:05;7.00;99.90
16635;DHT22;8431;52.458;9.998;2023-03-13T02:39:36;7.00;99.90
16635;DHT22;8431;52.458;9.998;2023-03-13T02:42:05;6.90;99.90
16635;DHT22;8431;52.458;9.998;2023-03-13T02:44:38;7.00;99.90
16635;DHT22;8431;52.458;9.998;2023-03-13T02:47:05;7.00;99.90
16635;DHT22;8431;52.458;9.998;2023-03-13T02:49:34;6.90;99.90
16635;DHT22;8431;52.458;9.998;2023-03-13T02:52:08;6.90;99.90
16635;DHT22;8431;52.458;9.998;2023-03-13T02:54:37;6.90;99.90
16635;DHT22;8431;52.458;9.998;2023-03-13T02:57:06;6.80;99.90
16635;DHT22;8431;52.458;9.998;2023-03-13T02:59:33;6.90;99.90
16635;DHT22;8431;52.458;9.998;2023-03-13T03:02:02;6.90;99.90
16635;DHT22;8431;52.458;9.998;2023-03-13T03:04:30;6.90;99.90
16635;DHT22;8431;52.458;9.998;2023-03-13T03:06:57;6.90;99.90
16635;DHT22;8431;52.458;9.998;2023-03-13T03:09:24;6.80;99.90
16635;DHT22;8431;52.458;9.998;2023-03-13T03:11:51;6.90;99.90
16635;DHT22;8431;52.458;9.998;2023-03-13T03:14:18;6.90;99.90
16635;DHT22;8431;52.458;9.998;2023-03-13T03:16:45;6.80;99.90
16635;DHT22;8431;52.458;9.998;2023-03-13T03:19:16;6.80;99.90
16635;DHT22;8431;52.458;9.998;2023-03-13T03:21:44;6.80;99.90
16635;DHT22;8431;52.458;9.998;2023-03-13T03:24:14;6.80;99.90
16635;DHT22;8431;52.458;9.998;2023-03-13T03:26:41;6.80;99.90
16635;DHT22;8431;52.458;9.998;2023-03-13T03:29:08;6.80;99.90
16635;DHT22;8431;52.458;9.998;2023-03-13T03:31:35;6.80;99.90
16635;DHT22;8431;52.458;9.998;2023-03-13T03:34:03;6.80;99.90
16635;DHT22;8431;52.458;9.998;2023-03-13T03:36:31;6.80;99.90
16635;DHT22;8431;52.458;9.998;2023-03-13T03:38:58;6.80;99.90
16635;DHT22;8431;52.458;9.998;2023-03-13T03:41:27;6.80;99.90
16635;DHT22;8431;52.458;9.998;2023-03-13T03:43:54;6.80;99.90
16635;DHT22;8431;52.458;9.998;2023-03-13T03:46:22;6.80;99.90
16635;DHT22;8431;52.458;9.998;2023-03-13T03:48:49;6.80;99.90
16635;DHT22;8431;52.458;9.998;2023-03-13T03:51:16;6.80;99.90
16635;DHT22;8431;52.458;9.998;2023-03-13T03:53:44;6.80;99.90
16635;DHT22;8431;52.458;9.998;2023-03-13T03:56:11;6.80;99.90
16635;DHT22;8431;52.458;9.998;2023-03-13T03:58:38;6.80;99.90
16635;DHT22;8431;52.458;9.998;2023-03-13T04:01:05;6.70;99.90
16635;DHT22;8431;52.458;9.998;2023-03-13T04:03:32;6.70;99.90
16635;DHT22;8431;52.458;9.998;2023-03-13T04:05:59;6.80;99.90
16635;DHT22;8431;52.458;9.998;2023-03-13T04:08:26;6.80;99.90
16635;DHT22;8431;52.458;9.998;2023-03-13T04:10:55;6.70;99.90
16635;DHT22;8431;52.458;9.998;2023-03-13T04:13:22;6.70;99.90
16635;DHT22;8431;52.458;9.998;2023-03-13T04:15:49;6.80;99.90
16635;DHT22;8431;52.458;9.998;2023-03-13T04:18:16;6.80;99.90
16635;DHT22;8431;52.458;9.998;2023-03-13T04:20:43;6.80;99.90
16635;DHT22;8431;52.458;9.998;2023-03-13T04:23:10;6.80;99.90
16635;DHT22;8431;52.458;9.998;2023-03-13T04:25:37;6.80;99.90
16635;DHT22;8431;52.458;9.998;2023-03-13T04:28:06;6.80;99.90
16635;DHT22;8431;52.458;9.998;2023-03-13T04:30:34;6.80;99.90
16635;DHT22;8431;52.458;9.998;2023-03-13T04:33:01;6.80;99.90
16635;DHT22;8431;52.458;9.998;2023-03-13T04:35:28;6.80;99.90
16635;DHT22;8431;52.458;9.998;2023-03-13T04:37:56;6.80;99.90
16635;DHT22;8431;52.458;9.998;2023-03-13T04:40:25;6.90;99.90
16635;DHT22;8431;52.458;9.998;2023-03-13T04:42:52;6.90;99.90
16635;DHT22;8431;52.458;9.998;2023-03-13T04:45:21;6.90;99.90
16635;DHT22;8431;52.458;9.998;2023-03-13T04:47:48;7.00;99.90
16635;DHT22;8431;52.458;9.998;2023-03-13T04:50:15;7.00;99.90
16635;DHT22;8431;52.458;9.998;2023-03-13T04:52:42;7.00;99.90
16635;DHT22;8431;52.458;9.998;2023-03-13T04:55:09;7.00;99.90
16635;DHT22;8431;52.458;9.998;2023-03-13T04:57:36;7.10;99.90
16635;DHT22;8431;52.458;9.998;2023-03-13T05:00:07;7.10;99.90
16635;DHT22;8431;52.458;9.998;2023-03-13T05:02:36;7.10;99.90
16635;DHT22;8431;52.458;9.998;2023-03-13T05:05:03;7.20;99.90
16635;DHT22;8431;52.458;9.998;2023-03-13T05:07:30;7.20;99.90
16635;DHT22;8431;52.458;9.998;2023-03-13T05:09:57;7.20;99.90
16635;DHT22;8431;52.458;9.998;2023-03-13T05:12:24;7.30;99.90
16635;DHT22;8431;52.458;9.998;2023-03-13T05:14:51;7.30;99.90
16635;DHT22;8431;52.458;9.998;2023-03-13T05:17:18;7.40;99.90
16635;DHT22;8431;52.458;9.998;2023-03-13T05:19:46;7.40;99.90
16635;DHT22;8431;52.458;9.998;2023-03-13T05:22:13;7.50;99.90
16635;DHT22;8431;52.458;9.998;2023-03-13T05:24:40;7.50;99.90
16635;DHT22;8431;52.458;9.998;2023-03-13T05:27:07;7.60;99.90
16635;DHT22;8431;52.458;9.998;2023-03-13T05:29:34;7.60;99.90
16635;DHT22;8431;52.458;9.998;2023-03-13T05:32:01;7.60;99.90
16635;DHT22;8431;52.458;9.998;2023-03-13T05:34:28;7.70;99.90
16635;DHT22;8431;52.458;9.998;2023-03-13T05:36:56;7.70;99.90
16635;DHT22;8431;52.458;9.998;2023-03-13T05:39:23;7.70;99.90
16635;DHT22;8431;52.458;9.998;2023-03-13T05:41:50;7.70;99.90
16635;DHT22;8431;52.458;9.998;2023-03-13T05:44:17;7.70;99.90
16635;DHT22;8431;52.458;9.998;2023-03-13T05:46:44;7.70;99.90
16635;DHT22;8431;52.458;9.998;2023-03-13T05:49:11;7.70;99.90
16635;DHT22;8431;52.458;9.998;2023-03-13T05:51:38;7.70;99.90
16635;DHT22;8431;52.458;9.998;2023-03-13T05:54:07;7.80;99.90
16635;DHT22;8431;52.458;9.998;2023-03-13T05:56:34;7.80;99.90
16635;DHT22;8431;52.458;9.998;2023-03-13T05:59:01;7.80;99.90
16635;DHT22;8431;52.458;9.998;2023-03-13T06:01:28;7.80;99.90
16635;DHT22;8431;52.458;9.998;2023-03-13T06:03:55;7.90;99.90
16635;DHT22;8431;52.458;9.998;2023-03-13T06:06:22;7.90;99.90
16635;DHT22;8431;52.458;9.998;2023-03-13T06:08:51;7.90;99.90
16635;DHT22;8431;52.458;9.998;2023-03-13T06:11:19;7.90;99.90
16635;DHT22;8431;52.458;9.998;2023-03-13T06:13:46;7.90;99.90
16635;DHT22;8431;52.458;9.998;2023-03-13T06:16:13;8.00;99.90
16635;DHT22;8431;52.458;9.998;2023-03-13T06:18:40;8.00;99.90
16635;DHT22;8431;52.458;9.998;2023-03-13T06:21:07;8.10;99.90
16635;DHT22;8431;52.458;9.998;2023-03-13T06:23:36;8.10;99.90
16635;DHT22;8431;52.458;9.998;2023-03-13T06:26:03;8.10;99.90
16635;DHT22;8431;52.458;9.998;2023-03-13T06:28:32;8.10;99.90
16635;DHT22;8431;52.458;9.998;2023-03-13T06:31:04;8.20;99.90
16635;DHT22;8431;52.458;9.998;2023-03-13T06:33:31;8.20;99.90
16635;DHT22;8431;52.458;9.998;2023-03-13T06:35:59;8.20;99.90
16635;DHT22;8431;52.458;9.998;2023-03-13T06:38:26;8.20;99.90
16635;DHT22;8431;52.458;9.998;2023-03-13T06:40:54;8.30;99.90
16635;DHT22;8431;52.458;9.998;2023-03-13T06:43:21;8.30;99.90
16635;DHT22;8431;52.458;9.998;2023-03-13T06:45:50;8.40;99.90
16635;DHT22;8431;52.458;9.998;2023-03-13T06:48:17;8.50;99.90
16635;DHT22;8431;52.458;9.998;2023-03-13T06:50:45;8.60;99.90
16635;DHT22;8431;52.458;9.998;2023-03-13T06:53:14;8.60;99.90
16635;DHT22;8431;52.458;9.998;2023-03-13T06:55:42;8.60;99.90
16635;DHT22;8431;52.458;9.998;2023-03-13T06:58:09;8.70;99.90
16635;DHT22;8431;52.458;9.998;2023-03-13T07:00:36;8.80;99.90
16635;DHT22;8431;52.458;9.998;2023-03-13T07:03:05;8.80;99.90
16635;DHT22;8431;52.458;9.998;2023-03-13T07:05:32;8.80;99.90
16635;DHT22;8431;52.458;9.998;2023-03-13T07:07:59;8.80;99.90
16635;DHT22;8431;52.458;9.998;2023-03-13T07:10:26;8.80;99.90
16635;DHT22;8431;52.458;9.998;2023-03-13T07:12:53;8.90;99.90
16635;DHT22;8431;52.458;9.998;2023-03-13T07:15:21;8.90;99.90
16635;DHT22;8431;52.458;9.998;2023-03-13T07:17:48;9.00;99.90
16635;DHT22;8431;52.458;9.998;2023-03-13T07:20:16;9.00;99.90
16635;DHT22;8431;52.458;9.998;2023-03-13T07:22:43;9.00;99.90
16635;DHT22;8431;52.458;9.998;2023-03-13T07:25:16;9.10;99.90
16635;DHT22;8431;52.458;9.998;2023-03-13T07:27:43;9.00;99.90
16635;DHT22;8431;52.458;9.998;2023-03-13T07:30:11;9.10;99.90
16635;DHT22;8431;52.458;9.998;2023-03-13T07:32:38;9.20;99.90
16635;DHT22;8431;52.458;9.998;2023-03-13T07:35:05;9.30;99.90
16635;DHT22;8431;52.458;9.998;2023-03-13T07:37:34;9.30;99.90
16635;DHT22;8431;52.458;9.998;2023-03-13T07:40:01;9.30;99.90
16635;DHT22;8431;52.458;9.998;2023-03-13T07:42:29;9.40;99.90
16635;DHT22;8431;52.458;9.998;2023-03-13T07:44:56;9.50;99.90
16635;DHT22;8431;52.458;9.998;2023-03-13T07:47:23;9.60;99.90
16635;DHT22;8431;52.458;9.998;2023-03-13T07:49:50;9.70;99.90
16635;DHT22;8431;52.458;9.998;2023-03-13T07:52:18;9.70;99.90
16635;DHT22;8431;52.458;9.998;2023-03-13T07:54:47;9.80;99.90
16635;DHT22;8431;52.458;9.998;2023-03-13T07:57:14;9.80;99.90
16635;DHT22;8431;52.458;9.998;2023-03-13T07:59:41;9.80;99.90
16635;DHT22;8431;52.458;9.998;2023-03-13T08:02:09;9.90;99.90
16635;DHT22;8431;52.458;9.998;2023-03-13T08:04:38;9.90;99.90
16635;DHT22;8431;52.458;9.998;2023-03-13T08:07:07;9.90;99.90
16635;DHT22;8431;52.458;9.998;2023-03-13T08:09:34;10.00;99.90
16635;DHT22;8431;52.458;9.998;2023-03-13T08:12:03;10.00;99.90
16635;DHT22;8431;52.458;9.998;2023-03-13T08:14:30;10.20;99.90
16635;DHT22;8431;52.458;9.998;2023-03-13T08:16:57;10.20;99.90
16635;DHT22;8431;52.458;9.998;2023-03-13T08:19:24;10.30;99.90
16635;DHT22;8431;52.458;9.998;2023-03-13T08:21:51;10.30;99.90
16635;DHT22;8431;52.458;9.998;2023-03-13T08:24:18;10.30;99.90
16635;DHT22;8431;52.458;9.998;2023-03-13T08:26:45;10.40;99.90
16635;DHT22;8431;52.458;9.998;2023-03-13T08:29:14;10.40;99.90
16635;DHT22;8431;52.458;9.998;2023-03-13T08:31:43;10.50;99.90
16635;DHT22;8431;52.458;9.998;2023-03-13T08:34:11;10.50;99.90
16635;DHT22;8431;52.458;9.998;2023-03-13T08:36:38;10.60;99.90
16635;DHT22;8431;52.458;9.998;2023-03-13T08:39:08;10.60;99.90
16635;DHT22;8431;52.458;9.998;2023-03-13T08:41:37;10.60;99.90
16635;DHT22;8431;52.458;9.998;2023-03-13T08:44:05;10.70;99.90
16635;DHT22;8431;52.458;9.998;2023-03-13T08:46:35;10.80;99.90
16635;DHT22;8431;52.458;9.998;2023-03-13T08:49:03;10.80;99.90
16635;DHT22;8431;52.458;9.998;2023-03-13T08:51:31;10.80;99.90
16635;DHT22;8431;52.458;9.998;2023-03-13T08:54:00;10.80;99.90
16635;DHT22;8431;52.458;9.998;2023-03-13T08:56:29;10.80;99.90
16635;DHT22;8431;52.458;9.998;2023-03-13T08:58:57;10.90;99.90
16635;DHT22;8431;52.458;9.998;2023-03-13T09:01:26;11.00;99.90
16635;DHT22;8431;52.458;9.998;2023-03-13T09:03:55;11.00;99.90
16635;DHT22;8431;52.458;9.998;2023-03-13T09:06:22;11.00;99.90
16635;DHT22;8431;52.458;9.998;2023-03-13T09:08:49;11.00;99.90
16635;DHT22;8431;52.458;9.998;2023-03-13T09:11:17;11.10;99.90
16635;DHT22;8431;52.458;9.998;2023-03-13T09:13:46;11.20;99.90
16635;DHT22;8431;52.458;9.998;2023-03-13T09:16:15;11.30;99.90
16635;DHT22;8431;52.458;9.998;2023-03-13T09:18:42;11.30;99.90
16635;DHT22;8431;52.458;9.998;2023-03-13T09:21:13;11.50;99.90
16635;DHT22;8431;52.458;9.998;2023-03-13T09:23:41;11.60;99.90
16635;DHT22;8431;52.458;9.998;2023-03-13T09:26:08;11.60;99.90
16635;DHT22;8431;52.458;9.998;2023-03-13T09:28:35;11.70;99.90
16635;DHT22;8431;52.458;9.998;2023-03-13T09:31:06;11.80;99.90
16635;DHT22;8431;52.458;9.998;2023-03-13T09:33:34;11.80;99.90
16635;DHT22;8431;52.458;9.998;2023-03-13T09:36:01;11.90;99.90
16635;DHT22;8431;52.458;9.998;2023-03-13T09:38:29;12.00;99.90
16635;DHT22;8431;52.458;9.998;2023-03-13T09:41:01;12.00;99.90
16635;DHT22;8431;52.458;9.998;2023-03-13T09:43:38;12.10;99.90
16635;DHT22;8431;52.458;9.998;2023-03-13T09:46:12;12.10;99.90
16635;DHT22;8431;52.458;9.998;2023-03-13T09:48:44;12.10;99.90
16635;DHT22;8431;52.458;9.998;2023-03-13T09:51:15;12.10;99.90
16635;DHT22;8431;52.458;9.998;2023-03-13T09:53:47;12.20;99.90
16635;DHT22;8431;52.458;9.998;2023-03-13T09:56:16;12.20;99.90
16635;DHT22;8431;52.458;9.998;2023-03-13T09:58:50;12.20;99.90
16635;DHT22;8431;52.458;9.998;2023-03-13T10:01:23;12.30;99.90
16635;DHT22;8431;52.458;9.998;2023-03-13T10:03:59;12.30;99.90
16635;DHT22;8431;52.458;9.998;2023-03-13T10:06:31;12.20;99.90
16635;DHT22;8431;52.458;9.998;2023-03-13T10:09:00;12.30;99.90
16635;DHT22;8431;52.458;9.998;2023-03-13T10:11:32;12.40;99.90
16635;DHT22;8431;52.458;9.998;2023-03-13T10:14:04;12.40;99.90
16635;DHT22;8431;52.458;9.998;2023-03-13T10:16:38;12.50;99.90
16635;DHT22;8431;52.458;9.998;2023-03-13T10:19:12;12.50;99.90
16635;DHT22;8431;52.458;9.998;2023-03-13T10:21:43;12.60;99.90
16635;DHT22;8431;52.458;9.998;2023-03-13T10:24:17;12.60;99.90
16635;DHT22;8431;52.458;9.998;2023-03-13T10:26:44;12.80;99.90
16635;DHT22;8431;52.458;9.998;2023-03-13T10:29:20;12.80;99.90
16635;DHT22;8431;52.458;9.998;2023-03-13T10:31:55;12.80;99.90
16635;DHT22;8431;52.458;9.998;2023-03-13T10:34:23;12.80;99.90
16635;DHT22;8431;52.458;9.998;2023-03-13T10:36:55;12.90;99.90
16635;DHT22;8431;52.458;9.998;2023-03-13T10:39:26;13.00;99.90
16635;DHT22;8431;52.458;9.998;2023-03-13T10:41:58;13.00;99.90
16635;DHT22;8431;52.458;9.998;2023-03-13T10:44:33;13.10;99.90
16635;DHT22;8431;52.458;9.998;2023-03-13T10:47:01;13.20;99.90
16635;DHT22;8431;52.458;9.998;2023-03-13T10:49:30;13.50;99.90
16635;DHT22;8431;52.458;9.998;2023-03-13T10:52:00;13.60;99.90
16635;DHT22;8431;52.458;9.998;2023-03-13T10:54:34;13.70;99.90
16635;DHT22;8431;52.458;9.998;2023-03-13T10:57:26;13.60;99.90
16635;DHT22;8431;52.458;9.998;2023-03-13T10:59:54;13.50;99.90
16635;DHT22;8431;52.458;9.998;2023-03-13T11:02:26;13.50;99.90
16635;DHT22;8431;52.458;9.998;2023-03-13T11:04:54;13.60;99.90
16635;DHT22;8431;52.458;9.998;2023-03-13T11:07:26;13.70;99.90
16635;DHT22;8431;52.458;9.998;2023-03-13T11:10:00;13.80;99.90
16635;DHT22;8431;52.458;9.998;2023-03-13T11:12:28;14.10;99.90
16635;DHT22;8431;52.458;9.998;2023-03-13T11:14:59;14.20;99.90
16635;DHT22;8431;52.458;9.998;2023-03-13T11:17:34;14.10;99.90
16635;DHT22;8431;52.458;9.998;2023-03-13T11:20:19;14.20;99.90
16635;DHT22;8431;52.458;9.998;2023-03-13T11:23:08;14.20;99.90
16635;DHT22;8431;52.458;9.998;2023-03-13T11:25:42;14.40;99.90
16635;DHT22;8431;52.458;9.998;2023-03-13T11:28:22;14.50;99.90
16635;DHT22;8431;52.458;9.998;2023-03-13T11:31:10;14.60;99.90
16635;DHT22;8431;52.458;9.998;2023-03-13T11:33:46;14.80;99.90
16635;DHT22;8431;52.458;9.998;2023-03-13T11:36:20;14.90;99.90
16635;DHT22;8431;52.458;9.998;2023-03-13T11:38:53;15.00;99.90
16635;DHT22;8431;52.458;9.998;2023-03-13T11:41:31;14.90;99.90
16635;DHT22;8431;52.458;9.998;2023-03-13T11:44:17;14.80;99.90
16635;DHT22;8431;52.458;9.998;2023-03-13T11:46:54;14.70;99.90
16635;DHT22;8431;52.458;9.998;2023-03-13T11:49:42;15.00;99.90
16635;DHT22;8431;52.458;9.998;2023-03-13T11:52:31;15.30;99.90
16635;DHT22;8431;52.458;9.998;2023-03-13T11:55:17;15.40;99.90
16635;DHT22;8431;52.458;9.998;2023-03-13T11:57:53;15.60;99.90
16635;DHT22;8431;52.458;9.998;2023-03-13T12:00:28;15.50;99.90
16635;DHT22;8431;52.458;9.998;2023-03-13T12:03:00;15.50;99.90
16635;DHT22;8431;52.458;9.998;2023-03-13T12:05:36;15.70;99.90
16635;DHT22;8431;52.458;9.998;2023-03-13T12:08:06;16.00;99.90
16635;DHT22;8431;52.458;9.998;2023-03-13T12:10:38;16.10;99.90
16635;DHT22;8431;52.458;9.998;2023-03-13T12:13:12;16.00;99.90
16635;DHT22;8431;52.458;9.998;2023-03-13T12:15:43;16.20;99.90
16635;DHT22;8431;52.458;9.998;2023-03-13T12:18:16;16.20;99.90
16635;DHT22;8431;52.458;9.998;2023-03-13T12:20:48;16.10;99.90
16635;DHT22;8431;52.458;9.998;2023-03-13T12:23:25;16.10;99.90
16635;DHT22;8431;52.458;9.998;2023-03-13T12:25:55;16.10;99.90
16635;DHT22;8431;52.458;9.998;2023-03-13T12:28:34;16.30;99.90
16635;DHT22;8431;52.458;9.998;2023-03-13T12:31:11;16.40;99.90
16635;DHT22;8431;52.458;9.998;2023-03-13T12:33:43;16.30;99.90
16635;DHT22;8431;52.458;9.998;2023-03-13T12:36:13;16.30;99.90
16635;DHT22;8431;52.458;9.998;2023-03-13T12:38:52;16.20;99.90
16635;DHT22;8431;52.458;9.998;2023-03-13T12:41:41;16.30;99.90
16635;DHT22;8431;52.458;9.998;2023-03-13T12:44:15;16.40;99.90
16635;DHT22;8431;52.458;9.998;2023-03-13T12:46:45;16.40;99.90
16635;DHT22;8431;52.458;9.998;2023-03-13T12:49:40;16.60;99.90
16635;DHT22;8431;52.458;9.998;2023-03-13T12:58:45;16.20;99.90
16635;DHT22;8431;52.458;9.998;2023-03-13T13:01:24;16.20;99.90
16635;DHT22;8431;52.458;9.998;2023-03-13T13:03:55;16.30;99.90
16635;DHT22;8431;52.458;9.998;2023-03-13T13:06:24;16.40;99.90
16635;DHT22;8431;52.458;9.998;2023-03-13T13:09:07;16.40;99.90
16635;DHT22;8431;52.458;9.998;2023-03-13T13:11:44;16.40;99.90
16635;DHT22;8431;52.458;9.998;2023-03-13T13:17:50;16.40;99.90
16635;DHT22;8431;52.458;9.998;2023-03-13T13:20:36;16.50;99.90
16635;DHT22;8431;52.458;9.998;2023-03-13T13:23:31;16.80;99.90
16635;DHT22;8431;52.458;9.998;2023-03-13T13:32:43;16.60;99.90
16635;DHT22;8431;52.458;9.998;2023-03-13T13:35:31;16.50;99.90
16635;DHT22;8431;52.458;9.998;2023-03-13T13:38:26;16.50;99.90
16635;DHT22;8431;52.458;9.998;2023-03-13T13:41:01;16.50;99.90
16635;DHT22;8431;52.458;9.998;2023-03-13T13:43:31;16.80;99.90
16635;DHT22;8431;52.458;9.998;2023-03-13T13:46:17;16.80;99.90
16635;DHT22;8431;52.458;9.998;2023-03-13T13:49:12;16.80;99.90
16635;DHT22;8431;52.458;9.998;2023-03-13T13:51:41;16.80;99.90
16635;DHT22;8431;52.458;9.998;2023-03-13T13:54:30;16.90;99.90
16635;DHT22;8431;52.458;9.998;2023-03-13T13:56:57;16.80;99.90
16635;DHT22;8431;52.458;9.998;2023-03-13T13:59:41;16.80;99.90
16635;DHT22;8431;52.458;9.998;2023-03-13T14:02:20;16.90;99.90
16635;DHT22;8431;52.458;9.998;2023-03-13T14:04:55;16.80;99.90
16635;DHT22;8431;52.458;9.998;2023-03-13T14:07:30;16.90;99.90
16635;DHT22;8431;52.458;9.998;2023-03-13T14:10:11;16.90;99.90
16635;DHT22;8431;52.458;9.998;2023-03-13T14:12:45;16.90;99.90
16635;DHT22;8431;52.458;9.998;2023-03-13T14:15:18;17.00;99.90
16635;DHT22;8431;52.458;9.998;2023-03-13T14:17:46;17.10;99.90
16635;DHT22;8431;52.458;9.998;2023-03-13T14:20:34;17.20;99.90
16635;DHT22;8431;52.458;9.998;2023-03-13T14:23:04;17.30;99.90
16635;DHT22;8431;52.458;9.998;2023-03-13T14:25:43;17.20;99.90
16635;DHT22;8431;52.458;9.998;2023-03-13T14:28:18;17.20;99.90
16635;DHT22;8431;52.458;9.998;2023-03-13T14:30:47;17.20;99.90
16635;DHT22;8431;52.458;9.998;2023-03-13T14:33:18;17.20;99.90
16635;DHT22;8431;52.458;9.998;2023-03-13T14:35:47;17.30;99.90
16635;DHT22;8431;52.458;9.998;2023-03-13T14:38:16;17.30;99.90
16635;DHT22;8431;52.458;9.998;2023-03-13T14:40:43;17.30;99.90
16635;DHT22;8431;52.458;9.998;2023-03-13T14:43:22;17.30;99.90
16635;DHT22;8431;52.458;9.998;2023-03-13T14:45:50;17.10;99.90
16635;DHT22;8431;52.458;9.998;2023-03-13T14:48:20;17.00;99.90
16635;DHT22;8431;52.458;9.998;2023-03-13T14:50:52;16.90;99.90
16635;DHT22;8431;52.458;9.998;2023-03-13T14:53:24;17.00;99.90
16635;DHT22;8431;52.458;9.998;2023-03-13T14:56:11;17.10;99.90
16635;DHT22;8431;52.458;9.998;2023-03-13T14:58:38;17.10;99.90
16635;DHT22;8431;52.458;9.998;2023-03-13T15:01:20;17.00;99.90
16635;DHT22;8431;52.458;9.998;2023-03-13T15:03:50;17.00;99.90
16635;DHT22;8431;52.458;9.998;2023-03-13T15:06:26;16.90;99.90
16635;DHT22;8431;52.458;9.998;2023-03-13T15:09:18;16.80;99.90
16635;DHT22;8431;52.458;9.998;2023-03-13T15:11:53;16.70;99.90
16635;DHT22;8431;52.458;9.998;2023-03-13T15:14:36;16.60;99.90
16635;DHT22;8431;52.458;9.998;2023-03-13T15:17:14;16.70;99.90
16635;DHT22;8431;52.458;9.998;2023-03-13T15:19:42;16.80;99.90
16635;DHT22;8431;52.458;9.998;2023-03-13T15:22:15;16.80;99.90
16635;DHT22;8431;52.458;9.998;2023-03-13T15:24:43;16.90;99.90
16635;DHT22;8431;52.458;9.998;2023-03-13T15:27:14;16.80;99.90
16635;DHT22;8431;52.458;9.998;2023-03-13T15:29:42;16.70;99.90
16635;DHT22;8431;52.458;9.998;2023-03-13T15:32:16;16.70;99.90
16635;DHT22;8431;52.458;9.998;2023-03-13T15:34:45;16.70;99.90
16635;DHT22;8431;52.458;9.998;2023-03-13T15:37:13;16.70;99.90
16635;DHT22;8431;52.458;9.998;2023-03-13T15:39:41;16.70;99.90
16635;DHT22;8431;52.458;9.998;2023-03-13T15:42:08;16.60;99.90
16635;DHT22;8431;52.458;9.998;2023-03-13T15:44:35;16.60;99.90
16635;DHT22;8431;52.458;9.998;2023-03-13T15:47:02;16.60;99.90
16635;DHT22;8431;52.458;9.998;2023-03-13T15:49:29;16.60;99.90
16635;DHT22;8431;52.458;9.998;2023-03-13T15:51:57;16.50;99.90
16635;DHT22;8431;52.458;9.998;2023-03-13T15:54:25;16.40;99.90
16635;DHT22;8431;52.458;9.998;2023-03-13T15:56:52;16.40;99.90
16635;DHT22;8431;52.458;9.998;2023-03-13T15:59:20;16.40;99.90
16635;DHT22;8431;52.458;9.998;2023-03-13T16:01:46;16.30;99.90
16635;DHT22;8431;52.458;9.998;2023-03-13T16:04:14;16.30;99.90
16635;DHT22;8431;52.458;9.998;2023-03-13T16:06:41;16.30;99.90
16635;DHT22;8431;52.458;9.998;2023-03-13T16:09:10;16.40;99.90
16635;DHT22;8431;52.458;9.998;2023-03-13T16:11:39;16.10;99.90
16635;DHT22;8431;52.458;9.998;2023-03-13T16:14:06;16.10;99.90
16635;DHT22;8431;52.458;9.998;2023-03-13T16:16:34;16.00;99.90
16635;DHT22;8431;52.458;9.998;2023-03-13T16:19:03;16.10;99.90
16635;DHT22;8431;52.458;9.998;2023-03-13T16:21:32;16.00;99.90
16635;DHT22;8431;52.458;9.998;2023-03-13T16:24:01;16.00;99.90
16635;DHT22;8431;52.458;9.998;2023-03-13T16:26:29;16.00;99.90
16635;DHT22;8431;52.458;9.998;2023-03-13T16:28:58;15.80;99.90
16635;DHT22;8431;52.458;9.998;2023-03-13T16:31:27;15.80;99.90